createdAt,value
2019-05-09T00:00:53.387Z,1.65
2019-05-09T00:03:24.040Z,1.40
2019-05-09T00:05:54.232Z,1.10
2019-05-09T00:08:23.234Z,1.50
2019-05-09T00:10:53.486Z,1.30
2019-05-09T00:13:53.859Z,1.07
2019-05-09T00:16:23.485Z,1.00
2019-05-09T00:18:54.118Z,0.90
2019-05-09T00:21:24.185Z,0.90
2019-05-09T00:23:54.151Z,1.00
2019-05-09T00:26:26.231Z,0.93
2019-05-09T00:28:59.443Z,1.12
2019-05-09T00:31:47.951Z,1.30
2019-05-09T00:34:18.111Z,0.90
2019-05-09T00:36:54.032Z,1.00
2019-05-09T00:39:23.670Z,1.00
2019-05-09T00:41:53.906Z,0.90
2019-05-09T00:44:24.517Z,1.20
2019-05-09T00:46:54.716Z,1.30
2019-05-09T00:49:27.468Z,1.60
2019-05-09T00:51:56.024Z,1.20
2019-05-09T00:54:24.574Z,1.30
2019-05-09T00:56:54.012Z,1.62
2019-05-09T00:59:24.101Z,1.57
2019-05-09T01:01:54.286Z,1.90
2019-05-09T01:04:24.160Z,2.17
2019-05-09T01:06:54.008Z,2.15
2019-05-09T01:09:24.152Z,2.30
2019-05-09T01:11:53.455Z,2.30
2019-05-09T01:14:23.448Z,2.25
2019-05-09T01:16:53.519Z,2.45
2019-05-09T01:19:23.287Z,2.22
2019-05-09T01:21:56.462Z,2.27
2019-05-09T01:24:25.368Z,2.50
2019-05-09T01:26:54.357Z,2.45
2019-05-09T01:29:24.174Z,2.30
2019-05-09T01:31:54.715Z,2.20
2019-05-09T01:34:25.277Z,2.70
2019-05-09T01:36:55.546Z,2.30
2019-05-09T01:39:24.468Z,2.30
2019-05-09T01:41:53.247Z,3.22
2019-05-09T01:44:23.808Z,2.62
2019-05-09T01:46:54.068Z,2.72
2019-05-09T01:49:23.261Z,2.62
2019-05-09T01:51:53.741Z,2.83
2019-05-09T01:54:23.823Z,3.10
2019-05-09T01:56:53.756Z,2.75
2019-05-09T01:59:24.216Z,2.80
2019-05-09T02:01:54.096Z,2.70
2019-05-09T02:04:24.296Z,2.65
2019-05-09T02:06:53.819Z,1.90
2019-05-09T02:09:23.468Z,2.20
2019-05-09T02:11:54.451Z,1.80
2019-05-09T02:14:24.866Z,1.98
2019-05-09T02:17:04.056Z,2.15
2019-05-09T02:19:36.978Z,2.22
2019-05-09T02:22:07.409Z,2.10
2019-05-09T02:24:36.342Z,2.05
2019-05-09T02:27:04.897Z,2.00
2019-05-09T02:29:33.820Z,1.92
2019-05-09T02:32:04.598Z,2.00
2019-05-09T02:34:35.577Z,2.10
2019-05-09T02:37:03.127Z,1.90
2019-05-09T02:39:32.040Z,2.00
2019-05-09T02:42:08.796Z,2.40
2019-05-09T02:44:30.845Z,2.00
2019-05-09T02:47:01.382Z,1.90
2019-05-09T02:49:29.924Z,2.15
2019-05-09T02:51:59.526Z,1.80
2019-05-09T02:54:29.845Z,1.72
2019-05-09T02:56:58.767Z,1.60
2019-05-09T02:59:29.843Z,1.72
2019-05-09T03:02:19.256Z,1.50
2019-05-09T03:04:49.921Z,1.55
2019-05-09T03:07:20.486Z,1.50
2019-05-09T03:09:49.101Z,1.35
2019-05-09T03:12:29.959Z,1.37
2019-05-09T03:14:48.691Z,1.32
2019-05-09T03:17:18.543Z,1.42
2019-05-09T03:19:48.821Z,1.57
2019-05-09T03:22:21.721Z,1.40
2019-05-09T03:24:58.875Z,1.50
2019-05-09T03:27:31.503Z,1.50
2019-05-09T03:30:02.040Z,1.30
2019-05-09T03:32:30.603Z,1.20
2019-05-09T03:34:59.164Z,1.20
2019-05-09T03:37:28.534Z,1.20
2019-05-09T03:39:58.093Z,1.15
2019-05-09T03:42:40.075Z,1.20
2019-05-09T03:44:58.544Z,1.20
2019-05-09T03:47:34.936Z,1.20
2019-05-09T03:50:30.958Z,1.10
2019-05-09T03:52:59.528Z,1.55
2019-05-09T03:55:30.077Z,1.52
2019-05-09T03:58:00.285Z,1.67
2019-05-09T04:00:28.757Z,2.00
2019-05-09T04:02:58.178Z,1.60
2019-05-09T04:05:27.413Z,1.50
2019-05-09T04:07:58.350Z,1.62
2019-05-09T04:10:28.192Z,1.72
2019-05-09T04:12:59.497Z,2.00
2019-05-09T04:15:27.610Z,1.87
2019-05-09T04:17:57.891Z,2.00
2019-05-09T04:20:27.703Z,2.40
2019-05-09T04:22:59.312Z,2.77
2019-05-09T04:25:28.245Z,2.40
2019-05-09T04:27:58.291Z,2.33
2019-05-09T04:30:27.507Z,2.83
2019-05-09T04:32:58.038Z,2.58
2019-05-09T04:35:27.998Z,3.02
2019-05-09T04:37:58.440Z,2.90
2019-05-09T04:40:31.824Z,2.72
2019-05-09T04:43:10.790Z,2.20
2019-05-09T04:45:47.326Z,2.55
2019-05-09T04:48:32.698Z,2.30
2019-05-09T04:53:39.322Z,3.37
2019-05-09T04:56:23.768Z,3.45
2019-05-09T04:58:52.312Z,2.92
2019-05-09T05:01:22.544Z,3.17
2019-05-09T05:03:52.856Z,2.85
2019-05-09T05:06:21.739Z,2.70
2019-05-09T05:08:50.633Z,3.58
2019-05-09T05:11:19.174Z,3.15
2019-05-09T05:13:50.501Z,2.60
2019-05-09T05:16:21.836Z,3.85
2019-05-09T05:18:50.716Z,3.20
2019-05-09T05:21:20.498Z,3.00
2019-05-09T05:23:50.764Z,2.90
2019-05-09T05:26:21.028Z,2.60
2019-05-09T05:28:49.573Z,1.75
2019-05-09T05:31:18.202Z,1.70
2019-05-09T05:33:53.770Z,2.08
2019-05-09T05:38:50.651Z,1.65
2019-05-09T05:41:19.578Z,1.70
2019-05-09T05:43:48.118Z,1.90
2019-05-09T05:46:18.395Z,1.82
2019-05-09T05:48:48.618Z,1.50
2019-05-09T05:51:18.425Z,1.50
2019-05-09T05:53:48.102Z,2.02
2019-05-09T05:56:17.590Z,1.62
2019-05-09T05:58:48.806Z,2.15
2019-05-09T06:01:18.712Z,1.57
2019-05-09T06:03:48.096Z,1.70
2019-05-09T06:06:17.487Z,1.60
2019-05-09T06:08:48.543Z,1.37
2019-05-09T06:11:17.680Z,1.65
2019-05-09T06:13:56.230Z,1.30
2019-05-09T06:16:18.221Z,1.40
2019-05-09T06:18:47.618Z,1.50
2019-05-09T06:21:17.739Z,1.60
2019-05-09T06:23:48.220Z,2.22
2019-05-09T06:26:18.563Z,2.58
2019-05-09T06:28:48.160Z,1.47
2019-05-09T06:31:17.874Z,1.75
2019-05-09T06:33:52.574Z,2.22
2019-05-09T06:36:18.807Z,1.60
2019-05-09T06:38:48.739Z,1.45
2019-05-09T06:41:17.754Z,1.52
2019-05-09T06:43:51.473Z,1.70
2019-05-09T06:46:27.839Z,1.87
2019-05-09T06:49:19.507Z,1.72
2019-05-09T06:51:27.675Z,1.67
2019-05-09T06:53:58.393Z,2.00
2019-05-09T06:56:32.444Z,1.50
2019-05-09T06:59:01.288Z,1.70
2019-05-09T07:01:34.357Z,2.83
2019-05-09T07:04:20.058Z,1.50
2019-05-09T07:07:01.641Z,1.60
2019-05-09T07:09:38.526Z,1.70
2019-05-09T07:12:07.961Z,1.55
2019-05-09T07:14:40.940Z,1.50
2019-05-09T07:17:08.314Z,1.50
2019-05-09T07:19:38.500Z,1.40
2019-05-09T07:22:27.826Z,1.20
2019-05-09T07:25:09.390Z,1.20
2019-05-09T07:27:38.853Z,1.22
2019-05-09T07:30:19.129Z,2.50
2019-05-09T07:32:57.817Z,1.35
2019-05-09T07:35:27.828Z,1.60
2019-05-09T07:37:57.860Z,1.37
2019-05-09T07:40:30.249Z,1.37
2019-05-09T07:43:01.270Z,1.60
2019-05-09T07:45:30.186Z,1.32
2019-05-09T07:47:59.077Z,0.90
2019-05-09T07:50:27.757Z,1.02
2019-05-09T07:52:58.180Z,1.45
2019-05-09T07:55:27.564Z,1.25
2019-05-09T07:57:58.776Z,1.42
2019-05-09T08:00:34.825Z,0.90
2019-05-09T08:03:03.377Z,1.10
2019-05-09T08:05:51.261Z,0.80
2019-05-09T08:08:20.126Z,1.00
2019-05-09T08:10:48.700Z,0.60
2019-05-09T08:13:29.474Z,1.00
2019-05-09T08:15:58.666Z,1.10
2019-05-09T08:18:28.189Z,1.20
2019-05-09T08:20:57.748Z,1.42
2019-05-09T08:23:29.233Z,1.00
2019-05-09T08:25:58.154Z,0.80
2019-05-09T08:28:28.147Z,0.60
2019-05-09T08:30:58.572Z,1.10
2019-05-09T08:33:28.729Z,0.90
2019-05-09T08:35:58.716Z,0.88
2019-05-09T08:38:28.228Z,0.80
2019-05-09T08:41:08.989Z,0.70
2019-05-09T08:43:38.488Z,0.72
2019-05-09T08:46:08.010Z,0.85
2019-05-09T08:48:37.847Z,0.90
2019-05-09T08:51:11.770Z,0.80
2019-05-09T08:53:40.669Z,0.70
2019-05-09T08:56:12.944Z,1.00
2019-05-09T08:58:40.092Z,0.85
2019-05-09T09:01:10.829Z,0.65
2019-05-09T09:03:39.214Z,0.80
2019-05-09T09:06:38.285Z,0.85
2019-05-09T09:09:08.054Z,1.00
2019-05-09T09:11:38.561Z,1.12
2019-05-09T09:14:07.855Z,1.02
2019-05-09T09:16:37.950Z,1.00
2019-05-09T09:19:08.919Z,0.80
2019-05-09T09:21:38.818Z,0.90
2019-05-09T09:24:08.741Z,0.80
2019-05-09T09:26:38.176Z,0.90
2019-05-09T09:29:08.509Z,0.98
2019-05-09T09:31:37.825Z,1.00
2019-05-09T09:34:07.922Z,0.90
2019-05-09T09:36:38.889Z,1.00
2019-05-09T09:39:08.095Z,1.00
2019-05-09T09:41:38.705Z,1.22
2019-05-09T09:44:08.749Z,0.85
2019-05-09T09:46:37.561Z,0.80
2019-05-09T09:49:07.899Z,1.00
2019-05-09T09:51:38.221Z,1.10
2019-05-09T09:54:08.758Z,1.00
2019-05-09T09:56:38.620Z,1.12
2019-05-09T09:59:12.751Z,1.07
2019-05-09T10:01:43.136Z,1.60
2019-05-09T10:04:19.590Z,1.25
2019-05-09T10:06:43.738Z,1.00
2019-05-09T10:09:13.153Z,0.98
2019-05-09T10:11:41.677Z,1.07
2019-05-09T10:14:12.135Z,1.05
2019-05-09T10:16:48.112Z,1.00
2019-05-09T10:19:34.903Z,0.95
2019-05-09T10:22:08.504Z,0.80
2019-05-09T10:24:37.097Z,0.90
2019-05-09T10:27:08.711Z,1.02
2019-05-09T10:29:38.834Z,0.93
2019-05-09T10:32:09.010Z,0.80
2019-05-09T10:34:37.939Z,0.90
2019-05-09T10:37:07.724Z,1.67
2019-05-09T10:39:38.051Z,1.50
2019-05-09T10:42:08.641Z,1.72
2019-05-09T10:44:42.042Z,1.00
2019-05-09T10:47:15.040Z,1.10
2019-05-09T10:49:43.829Z,1.40
2019-05-09T10:52:14.422Z,1.20
2019-05-09T10:54:42.437Z,0.90
2019-05-09T10:57:10.873Z,0.90
2019-05-09T10:59:40.562Z,0.90
2019-05-09T11:02:09.731Z,0.95
2019-05-09T11:04:44.290Z,0.70
2019-05-09T11:07:11.409Z,1.15
2019-05-09T11:09:40.209Z,0.95
2019-05-09T11:12:08.703Z,0.62
2019-05-09T11:14:37.871Z,1.07
2019-05-09T11:17:11.575Z,0.90
2019-05-09T11:19:36.612Z,1.00
2019-05-09T11:22:07.822Z,1.00
2019-05-09T11:24:44.889Z,0.82
2019-05-09T11:27:08.571Z,1.10
2019-05-09T11:29:38.714Z,1.40
2019-05-09T11:32:08.049Z,0.98
2019-05-09T11:34:37.577Z,0.98
2019-05-09T11:37:08.440Z,0.98
2019-05-09T11:39:42.048Z,0.98
2019-05-09T11:42:07.107Z,0.75
2019-05-09T11:44:35.638Z,0.85
2019-05-09T11:47:04.386Z,1.00
2019-05-09T11:49:39.222Z,0.90
2019-05-09T11:52:08.420Z,1.10
2019-05-09T11:54:38.864Z,0.80
2019-05-09T11:57:07.605Z,0.90
2019-05-09T11:59:37.939Z,0.80
2019-05-09T12:02:08.856Z,0.78
2019-05-09T12:04:38.040Z,1.20
2019-05-09T12:07:07.898Z,0.80
2019-05-09T12:09:38.501Z,1.00
2019-05-09T12:12:07.182Z,0.90
2019-05-09T12:14:38.129Z,0.90
2019-05-09T12:17:08.511Z,1.55
2019-05-09T12:19:38.037Z,0.68
2019-05-09T12:22:08.910Z,0.70
2019-05-09T12:24:59.181Z,1.00
2019-05-09T12:27:28.225Z,0.80
2019-05-09T12:29:58.116Z,1.30
2019-05-09T12:32:28.499Z,3.05
2019-05-09T12:35:03.113Z,2.42
2019-05-09T12:37:32.033Z,1.20
2019-05-09T12:40:00.467Z,0.80
2019-05-09T12:42:29.551Z,1.05
2019-05-09T12:44:58.918Z,1.10
2019-05-09T12:47:29.115Z,0.80
2019-05-09T12:50:00.387Z,0.70
2019-05-09T12:52:28.750Z,0.70
2019-05-09T12:54:58.254Z,0.80
2019-05-09T12:57:28.870Z,0.70
2019-05-09T12:59:58.685Z,0.60
2019-05-09T13:02:28.047Z,0.70
2019-05-09T13:04:57.102Z,0.68
2019-05-09T13:07:42.508Z,0.70
2019-05-09T13:10:11.025Z,0.72
2019-05-09T13:12:39.810Z,0.90
2019-05-09T13:15:09.022Z,0.50
2019-05-09T13:17:49.659Z,0.78
2019-05-09T13:20:18.275Z,0.80
2019-05-09T13:22:47.716Z,0.60
2019-05-09T13:25:18.681Z,0.70
2019-05-09T13:27:47.915Z,0.80
2019-05-09T13:30:19.219Z,0.80
2019-05-09T13:32:48.410Z,0.82
2019-05-09T13:35:19.890Z,0.78
2019-05-09T13:37:49.135Z,0.90
2019-05-09T13:40:20.431Z,0.80
2019-05-09T13:42:49.666Z,0.85
2019-05-09T13:45:18.735Z,0.85
2019-05-09T13:47:49.482Z,0.75
2019-05-09T13:50:19.161Z,0.70
2019-05-09T13:52:48.011Z,0.80
2019-05-09T13:55:17.869Z,0.70
2019-05-09T13:57:48.686Z,0.80
2019-05-09T14:00:18.467Z,0.70
2019-05-09T14:02:48.817Z,0.65
2019-05-09T14:05:19.130Z,0.78
2019-05-09T14:07:49.222Z,0.62
2019-05-09T14:10:17.964Z,0.65
2019-05-09T14:13:04.982Z,0.62
2019-05-09T14:15:20.040Z,0.75
2019-05-09T14:17:52.584Z,0.70
2019-05-09T14:20:19.470Z,0.60
2019-05-09T14:22:49.048Z,0.72
2019-05-09T14:25:19.485Z,0.62
2019-05-09T14:27:52.425Z,0.60
2019-05-09T14:30:21.150Z,0.68
2019-05-09T14:32:50.036Z,0.90
2019-05-09T14:35:19.722Z,0.80
2019-05-09T14:37:48.846Z,0.80
2019-05-09T14:40:17.792Z,1.30
2019-05-09T14:42:46.334Z,0.78
2019-05-09T14:45:17.939Z,0.98
2019-05-09T14:47:45.856Z,0.80
2019-05-09T14:50:18.127Z,0.62
2019-05-09T14:52:49.366Z,0.90
2019-05-09T14:55:17.942Z,0.75
2019-05-09T14:57:47.957Z,0.88
2019-05-09T15:00:18.810Z,0.80
2019-05-09T15:02:48.943Z,1.00
2019-05-09T15:05:18.869Z,1.02
2019-05-09T15:07:47.813Z,1.00
2019-05-09T15:10:22.273Z,1.20
2019-05-09T15:12:50.727Z,1.07
2019-05-09T15:15:19.300Z,1.15
2019-05-09T15:17:49.231Z,1.00
2019-05-09T15:20:18.350Z,1.75
2019-05-09T15:22:47.909Z,1.72
2019-05-09T15:25:19.236Z,1.60
2019-05-09T15:27:47.681Z,0.90
2019-05-09T15:30:22.129Z,0.90
2019-05-09T15:32:51.973Z,0.82
2019-05-09T15:35:20.813Z,0.90
2019-05-09T15:37:49.426Z,1.15
2019-05-09T15:40:18.042Z,0.90
2019-05-09T15:42:47.952Z,1.05
2019-05-09T15:45:18.469Z,1.15
2019-05-09T15:47:48.883Z,1.00
2019-05-09T15:50:22.817Z,1.30
2019-05-09T15:52:47.614Z,0.90
2019-05-09T15:55:17.737Z,1.00
2019-05-09T15:57:48.610Z,1.00
2019-05-09T16:00:19.111Z,1.00
2019-05-09T16:02:48.501Z,1.20
2019-05-09T16:05:18.124Z,0.95
2019-05-09T16:07:48.264Z,1.17
2019-05-09T16:10:17.912Z,1.10
2019-05-09T16:12:48.676Z,1.40
2019-05-09T16:15:18.327Z,1.02
2019-05-09T16:17:48.429Z,1.80
2019-05-09T16:20:28.080Z,1.20
2019-05-09T16:22:57.163Z,1.10
2019-05-09T16:25:24.469Z,0.88
2019-05-09T16:27:52.922Z,1.10
2019-05-09T16:30:21.443Z,0.90
2019-05-09T16:32:50.191Z,1.10
2019-05-09T16:35:21.174Z,1.25
2019-05-09T16:38:01.784Z,1.47
2019-05-09T16:40:27.836Z,0.70
2019-05-09T16:42:58.126Z,0.98
2019-05-09T16:45:26.130Z,0.90
2019-05-09T16:47:57.437Z,1.05
2019-05-09T16:50:25.233Z,0.68
2019-05-09T16:52:53.662Z,0.90
2019-05-09T16:55:23.754Z,1.15
2019-05-09T16:57:57.297Z,1.67
2019-05-09T17:00:31.485Z,1.02
2019-05-09T17:03:00.262Z,1.02
2019-05-09T17:05:28.908Z,1.62
2019-05-09T17:07:58.331Z,1.10
2019-05-09T17:10:27.294Z,1.22
2019-05-09T17:12:58.083Z,1.00
2019-05-09T17:15:26.379Z,0.90
2019-05-09T17:17:54.847Z,1.30
2019-05-09T17:20:27.958Z,1.32
2019-05-09T17:23:16.500Z,1.47
2019-05-09T17:25:47.794Z,1.47
2019-05-09T17:28:17.661Z,1.90
2019-05-09T17:30:54.268Z,1.95
2019-05-09T17:33:22.774Z,2.77
2019-05-09T17:35:51.205Z,2.87
2019-05-09T17:38:19.674Z,1.92
2019-05-09T17:40:48.694Z,2.45
2019-05-09T17:43:18.344Z,1.02
2019-05-09T17:45:47.804Z,1.60
2019-05-09T17:48:18.373Z,1.60
2019-05-09T17:50:47.131Z,1.00
2019-05-09T17:53:18.029Z,1.10
2019-05-09T17:55:47.780Z,1.42
2019-05-09T17:58:27.180Z,2.15
2019-05-09T18:00:48.563Z,1.15
2019-05-09T18:03:18.190Z,1.05
2019-05-09T18:05:48.550Z,1.27
2019-05-09T18:08:20.290Z,1.00
2019-05-09T18:10:48.817Z,1.00
2019-05-09T18:13:23.597Z,1.10
2019-05-09T18:15:48.428Z,0.90
2019-05-09T18:18:19.020Z,1.05
2019-05-09T18:20:47.803Z,0.80
2019-05-09T18:23:28.143Z,0.85
2019-05-09T18:25:58.322Z,0.75
2019-05-09T18:28:25.999Z,0.72
2019-05-09T18:30:54.441Z,0.98
2019-05-09T18:33:24.540Z,1.50
2019-05-09T18:35:52.974Z,1.07
2019-05-09T18:38:28.173Z,0.98
2019-05-09T18:40:57.880Z,1.25
2019-05-09T18:43:27.493Z,1.55
2019-05-09T18:45:59.477Z,1.80
2019-05-09T18:48:28.269Z,1.35
2019-05-09T18:50:57.182Z,2.50
2019-05-09T18:53:25.693Z,1.25
2019-05-09T18:55:54.147Z,1.15
2019-05-09T18:58:23.699Z,1.00
2019-05-09T19:00:55.013Z,0.70
2019-05-09T19:03:23.457Z,0.70
2019-05-09T19:05:51.894Z,0.80
2019-05-09T19:08:20.402Z,0.80
2019-05-09T19:10:52.106Z,1.10
2019-05-09T19:13:19.419Z,0.72
2019-05-09T19:15:58.299Z,0.82
2019-05-09T19:18:37.022Z,0.80
2019-05-09T19:21:11.035Z,1.00
2019-05-09T19:23:39.488Z,0.60
2019-05-09T19:26:09.839Z,1.60
2019-05-09T19:28:38.642Z,1.02
2019-05-09T19:31:07.171Z,1.80
2019-05-09T19:33:36.018Z,0.90
2019-05-09T19:36:04.818Z,1.00
2019-05-09T19:38:33.253Z,0.60
2019-05-09T19:41:01.992Z,1.05
2019-05-09T19:43:30.430Z,1.75
2019-05-09T19:45:58.883Z,2.98
2019-05-09T19:48:27.314Z,1.00
2019-05-09T19:50:56.447Z,0.82
2019-05-09T19:53:24.959Z,0.75
2019-05-09T19:56:02.869Z,0.90
2019-05-09T19:58:34.499Z,1.00
2019-05-09T20:01:03.306Z,1.10
2019-05-09T20:03:31.761Z,1.10
2019-05-09T20:06:00.223Z,1.32
2019-05-09T20:08:28.672Z,2.10
2019-05-09T20:11:07.891Z,1.65
2019-05-09T20:13:47.383Z,1.42
2019-05-09T20:18:41.224Z,1.32
2019-05-09T20:21:09.653Z,1.00
2019-05-09T20:23:38.166Z,0.70
2019-05-09T20:26:06.805Z,0.75
2019-05-09T20:28:35.249Z,0.68
2019-05-09T20:31:04.293Z,0.88
2019-05-09T20:33:33.092Z,0.70
2019-05-09T20:36:01.958Z,0.70
2019-05-09T20:38:30.605Z,0.62
2019-05-09T20:40:59.297Z,0.90
2019-05-09T20:43:27.914Z,0.98
2019-05-09T20:45:59.777Z,1.00
2019-05-09T20:48:34.429Z,1.10
2019-05-09T20:51:03.079Z,0.80
2019-05-09T20:53:31.783Z,0.70
2019-05-09T20:56:00.468Z,0.80
2019-05-09T20:58:29.473Z,1.00
2019-05-09T21:00:58.105Z,0.68
2019-05-09T21:03:26.755Z,0.70
2019-05-09T21:06:04.657Z,0.80
2019-05-09T21:08:33.689Z,0.75
2019-05-09T21:11:03.385Z,0.90
2019-05-09T21:13:46.132Z,1.27
2019-05-09T21:16:02.401Z,1.80
2019-05-09T21:18:31.460Z,1.27
2019-05-09T21:21:00.381Z,1.40
2019-05-09T21:23:29.002Z,1.12
2019-05-09T21:26:00.946Z,0.93
2019-05-09T21:28:29.576Z,2.37
2019-05-09T21:30:58.626Z,1.40
2019-05-09T21:33:27.250Z,0.90
2019-05-09T21:35:56.014Z,0.80
2019-05-09T21:38:24.450Z,1.20
2019-05-09T21:40:52.897Z,2.12
2019-05-09T21:43:21.331Z,1.00
2019-05-09T21:45:49.862Z,1.27
2019-05-09T21:48:18.311Z,1.00
2019-05-09T21:50:46.767Z,1.40
2019-05-09T21:53:15.531Z,1.30
2019-05-09T21:55:43.980Z,1.20
2019-05-09T21:58:12.415Z,0.90
2019-05-09T22:00:43.187Z,1.02
2019-05-09T22:03:11.770Z,1.10
2019-05-09T22:05:40.507Z,0.82
2019-05-09T22:08:08.958Z,0.90
2019-05-09T22:10:38.394Z,1.20
2019-05-09T22:13:06.851Z,0.85
2019-05-09T22:15:35.569Z,1.42
2019-05-09T22:18:04.298Z,0.90
2019-05-09T22:20:33.056Z,0.80
2019-05-09T22:23:06.304Z,0.90
2019-05-09T22:25:54.621Z,1.17
2019-05-09T22:28:23.586Z,1.00
2019-05-09T22:30:52.029Z,0.80
2019-05-09T22:33:20.458Z,0.80
2019-05-09T22:35:51.893Z,0.95
2019-05-09T22:38:20.654Z,0.80
2019-05-09T22:40:49.103Z,1.10
2019-05-09T22:43:17.540Z,1.15
2019-05-09T22:45:46.366Z,1.00
2019-05-09T22:48:14.801Z,0.90
2019-05-09T22:51:01.866Z,1.00
2019-05-09T22:53:30.334Z,0.90
2019-05-09T22:55:59.141Z,0.75
2019-05-09T22:58:27.578Z,0.90
2019-05-09T23:00:56.322Z,1.00
2019-05-09T23:03:24.781Z,1.10
2019-05-09T23:05:53.593Z,0.90
2019-05-09T23:08:22.046Z,1.00
2019-05-09T23:10:53.424Z,0.90
2019-05-09T23:13:20.656Z,1.30
2019-05-09T23:15:49.383Z,1.10
2019-05-09T23:18:17.859Z,1.42
2019-05-09T23:20:48.401Z,2.45
2019-05-09T23:23:37.801Z,1.80
2019-05-09T23:26:06.282Z,1.32
2019-05-09T23:28:35.057Z,1.30
2019-05-09T23:31:05.152Z,1.35
2019-05-09T23:33:35.597Z,1.17
2019-05-09T23:36:07.779Z,1.12
2019-05-09T23:38:37.886Z,1.10
2019-05-09T23:41:06.585Z,1.30
2019-05-09T23:43:35.190Z,1.30
2019-05-09T23:46:03.966Z,1.30
2019-05-09T23:48:32.414Z,1.30
2019-05-09T23:51:00.944Z,1.40
2019-05-09T23:53:38.503Z,1.45
2019-05-09T23:56:24.827Z,1.42
2019-05-09T23:59:13.712Z,1.37
